sensor_id;sensor_type;location;lat;lon;timestamp;P1;durP1;ratioP1;P2;durP2;ratioP2
18649;SDS011;9454;53.516;10.478;2022-08-16T00:02:41;8.02;;;5.78;;
18649;SDS011;9454;53.516;10.478;2022-08-16T00:05:48;9.00;;;5.20;;
18649;SDS011;9454;53.516;10.478;2022-08-16T00:08:58;8.30;;;4.28;;
18649;SDS011;9454;53.516;10.478;2022-08-16T00:12:01;9.35;;;4.95;;
18649;SDS011;9454;53.516;10.478;2022-08-16T00:15:07;10.55;;;4.70;;
18649;SDS011;9454;53.516;10.478;2022-08-16T00:18:12;12.82;;;5.05;;
18649;SDS011;9454;53.516;10.478;2022-08-16T00:21:18;7.55;;;4.95;;
18649;SDS011;9454;53.516;10.478;2022-08-16T00:24:23;8.35;;;5.07;;
18649;SDS011;9454;53.516;10.478;2022-08-16T00:27:33;7.95;;;4.90;;
18649;SDS011;9454;53.516;10.478;2022-08-16T00:30:38;10.25;;;4.85;;
18649;SDS011;9454;53.516;10.478;2022-08-16T00:33:41;7.07;;;4.47;;
18649;SDS011;9454;53.516;10.478;2022-08-16T00:36:52;6.47;;;4.72;;
18649;SDS011;9454;53.516;10.478;2022-08-16T00:39:56;10.13;;;5.15;;
18649;SDS011;9454;53.516;10.478;2022-08-16T00:43:00;9.60;;;4.90;;
18649;SDS011;9454;53.516;10.478;2022-08-16T00:46:05;7.88;;;4.80;;
18649;SDS011;9454;53.516;10.478;2022-08-16T00:49:28;6.55;;;4.50;;
18649;SDS011;9454;53.516;10.478;2022-08-16T00:52:47;8.70;;;4.80;;
18649;SDS011;9454;53.516;10.478;2022-08-16T00:55:52;9.27;;;4.97;;
18649;SDS011;9454;53.516;10.478;2022-08-16T00:58:57;8.95;;;4.65;;
18649;SDS011;9454;53.516;10.478;2022-08-16T01:02:02;7.25;;;4.97;;
18649;SDS011;9454;53.516;10.478;2022-08-16T01:05:26;9.48;;;5.45;;
18649;SDS011;9454;53.516;10.478;2022-08-16T01:08:32;8.77;;;5.50;;
18649;SDS011;9454;53.516;10.478;2022-08-16T01:11:37;7.75;;;4.97;;
18649;SDS011;9454;53.516;10.478;2022-08-16T01:14:56;7.50;;;5.25;;
18649;SDS011;9454;53.516;10.478;2022-08-16T01:18:00;10.55;;;5.63;;
18649;SDS011;9454;53.516;10.478;2022-08-16T01:21:11;8.52;;;4.85;;
18649;SDS011;9454;53.516;10.478;2022-08-16T01:24:25;10.55;;;5.25;;
18649;SDS011;9454;53.516;10.478;2022-08-16T01:27:51;9.73;;;5.47;;
18649;SDS011;9454;53.516;10.478;2022-08-16T01:30:55;11.40;;;6.35;;
18649;SDS011;9454;53.516;10.478;2022-08-16T01:33:59;9.27;;;5.93;;
18649;SDS011;9454;53.516;10.478;2022-08-16T01:37:03;12.20;;;6.00;;
18649;SDS011;9454;53.516;10.478;2022-08-16T01:40:11;7.90;;;5.00;;
18649;SDS011;9454;53.516;10.478;2022-08-16T01:43:16;7.13;;;5.18;;
18649;SDS011;9454;53.516;10.478;2022-08-16T01:46:21;7.57;;;5.22;;
18649;SDS011;9454;53.516;10.478;2022-08-16T01:49:43;8.02;;;5.72;;
18649;SDS011;9454;53.516;10.478;2022-08-16T01:53:06;10.52;;;6.22;;
18649;SDS011;9454;53.516;10.478;2022-08-16T01:56:32;8.63;;;6.00;;
18649;SDS011;9454;53.516;10.478;2022-08-16T01:59:36;12.50;;;6.43;;
18649;SDS011;9454;53.516;10.478;2022-08-16T02:02:41;9.30;;;6.15;;
18649;SDS011;9454;53.516;10.478;2022-08-16T02:05:53;10.32;;;5.97;;
18649;SDS011;9454;53.516;10.478;2022-08-16T02:08:58;12.95;;;5.65;;
18649;SDS011;9454;53.516;10.478;2022-08-16T02:12:04;11.85;;;6.30;;
18649;SDS011;9454;53.516;10.478;2022-08-16T02:15:29;9.38;;;6.22;;
18649;SDS011;9454;53.516;10.478;2022-08-16T02:18:41;9.60;;;6.38;;
18649;SDS011;9454;53.516;10.478;2022-08-16T02:21:48;18.55;;;6.50;;
18649;SDS011;9454;53.516;10.478;2022-08-16T02:25:12;9.68;;;6.45;;
18649;SDS011;9454;53.516;10.478;2022-08-16T02:28:17;7.72;;;5.47;;
18649;SDS011;9454;53.516;10.478;2022-08-16T02:31:24;10.05;;;6.68;;
18649;SDS011;9454;53.516;10.478;2022-08-16T02:34:47;12.45;;;7.60;;
18649;SDS011;9454;53.516;10.478;2022-08-16T02:37:51;9.95;;;7.00;;
18649;SDS011;9454;53.516;10.478;2022-08-16T02:40:59;11.63;;;7.00;;
18649;SDS011;9454;53.516;10.478;2022-08-16T02:44:12;11.18;;;6.72;;
18649;SDS011;9454;53.516;10.478;2022-08-16T02:47:20;11.98;;;7.55;;
18649;SDS011;9454;53.516;10.478;2022-08-16T02:50:26;12.07;;;6.93;;
18649;SDS011;9454;53.516;10.478;2022-08-16T02:53:49;11.60;;;7.82;;
18649;SDS011;9454;53.516;10.478;2022-08-16T02:56:53;14.48;;;7.50;;
18649;SDS011;9454;53.516;10.478;2022-08-16T02:59:59;11.43;;;8.20;;
18649;SDS011;9454;53.516;10.478;2022-08-16T03:03:23;15.23;;;7.93;;
18649;SDS011;9454;53.516;10.478;2022-08-16T03:06:27;10.82;;;8.13;;
18649;SDS011;9454;53.516;10.478;2022-08-16T03:09:54;13.95;;;8.52;;
18649;SDS011;9454;53.516;10.478;2022-08-16T03:13:03;15.10;;;8.30;;
18649;SDS011;9454;53.516;10.478;2022-08-16T03:16:14;12.35;;;8.10;;
18649;SDS011;9454;53.516;10.478;2022-08-16T03:19:37;11.00;;;7.28;;
18649;SDS011;9454;53.516;10.478;2022-08-16T03:22:57;16.23;;;8.18;;
18649;SDS011;9454;53.516;10.478;2022-08-16T03:26:00;13.45;;;9.07;;
18649;SDS011;9454;53.516;10.478;2022-08-16T03:29:04;11.65;;;8.48;;
18649;SDS011;9454;53.516;10.478;2022-08-16T03:32:09;12.20;;;8.63;;
18649;SDS011;9454;53.516;10.478;2022-08-16T03:35:14;14.77;;;9.25;;
18649;SDS011;9454;53.516;10.478;2022-08-16T03:38:18;12.65;;;8.68;;
18649;SDS011;9454;53.516;10.478;2022-08-16T03:41:43;12.10;;;8.60;;
18649;SDS011;9454;53.516;10.478;2022-08-16T03:44:53;14.38;;;8.60;;
18649;SDS011;9454;53.516;10.478;2022-08-16T03:48:09;12.05;;;8.75;;
18649;SDS011;9454;53.516;10.478;2022-08-16T03:51:20;14.63;;;9.15;;
18649;SDS011;9454;53.516;10.478;2022-08-16T03:54:32;15.80;;;8.82;;
18649;SDS011;9454;53.516;10.478;2022-08-16T03:57:37;16.20;;;9.10;;
18649;SDS011;9454;53.516;10.478;2022-08-16T04:00:43;11.75;;;8.63;;
18649;SDS011;9454;53.516;10.478;2022-08-16T04:03:52;15.95;;;8.65;;
18649;SDS011;9454;53.516;10.478;2022-08-16T04:06:56;10.95;;;8.07;;
18649;SDS011;9454;53.516;10.478;2022-08-16T04:10:00;17.20;;;9.73;;
18649;SDS011;9454;53.516;10.478;2022-08-16T04:13:23;15.90;;;8.65;;
18649;SDS011;9454;53.516;10.478;2022-08-16T04:16:46;13.63;;;9.45;;
18649;SDS011;9454;53.516;10.478;2022-08-16T04:20:08;14.55;;;9.35;;
18649;SDS011;9454;53.516;10.478;2022-08-16T04:23:32;17.70;;;8.32;;
18649;SDS011;9454;53.516;10.478;2022-08-16T04:26:37;16.85;;;9.57;;
18649;SDS011;9454;53.516;10.478;2022-08-16T04:29:48;14.82;;;8.95;;
18649;SDS011;9454;53.516;10.478;2022-08-16T04:32:53;15.32;;;8.77;;
18649;SDS011;9454;53.516;10.478;2022-08-16T04:36:02;12.95;;;8.43;;
18649;SDS011;9454;53.516;10.478;2022-08-16T04:39:06;16.48;;;8.85;;
18649;SDS011;9454;53.516;10.478;2022-08-16T04:42:11;14.35;;;8.98;;
18649;SDS011;9454;53.516;10.478;2022-08-16T04:45:14;12.93;;;8.88;;
18649;SDS011;9454;53.516;10.478;2022-08-16T04:48:19;14.60;;;8.95;;
18649;SDS011;9454;53.516;10.478;2022-08-16T04:51:37;14.32;;;8.32;;
18649;SDS011;9454;53.516;10.478;2022-08-16T04:54:42;19.83;;;9.90;;
18649;SDS011;9454;53.516;10.478;2022-08-16T04:57:45;16.05;;;9.82;;
18649;SDS011;9454;53.516;10.478;2022-08-16T05:00:55;22.70;;;9.82;;
18649;SDS011;9454;53.516;10.478;2022-08-16T05:04:01;16.20;;;9.70;;
18649;SDS011;9454;53.516;10.478;2022-08-16T05:07:22;15.30;;;10.75;;
18649;SDS011;9454;53.516;10.478;2022-08-16T05:10:36;14.55;;;9.95;;
18649;SDS011;9454;53.516;10.478;2022-08-16T05:13:40;15.95;;;10.43;;
18649;SDS011;9454;53.516;10.478;2022-08-16T05:16:52;15.35;;;9.82;;
18649;SDS011;9454;53.516;10.478;2022-08-16T05:19:55;16.73;;;10.23;;
18649;SDS011;9454;53.516;10.478;2022-08-16T05:23:11;17.20;;;10.70;;
18649;SDS011;9454;53.516;10.478;2022-08-16T05:26:16;18.65;;;10.48;;
18649;SDS011;9454;53.516;10.478;2022-08-16T05:29:22;14.45;;;10.68;;
18649;SDS011;9454;53.516;10.478;2022-08-16T05:32:49;15.75;;;10.05;;
18649;SDS011;9454;53.516;10.478;2022-08-16T05:35:53;18.95;;;11.15;;
18649;SDS011;9454;53.516;10.478;2022-08-16T05:39:12;15.45;;;10.93;;
18649;SDS011;9454;53.516;10.478;2022-08-16T05:42:17;19.88;;;10.70;;
18649;SDS011;9454;53.516;10.478;2022-08-16T05:45:20;19.45;;;11.43;;
18649;SDS011;9454;53.516;10.478;2022-08-16T05:48:28;18.38;;;11.27;;
18649;SDS011;9454;53.516;10.478;2022-08-16T05:51:36;15.30;;;10.65;;
18649;SDS011;9454;53.516;10.478;2022-08-16T05:54:44;15.63;;;10.60;;
18649;SDS011;9454;53.516;10.478;2022-08-16T05:58:02;17.23;;;10.90;;
18649;SDS011;9454;53.516;10.478;2022-08-16T06:01:05;19.70;;;11.43;;
18649;SDS011;9454;53.516;10.478;2022-08-16T06:04:12;17.70;;;11.00;;
18649;SDS011;9454;53.516;10.478;2022-08-16T06:07:35;15.20;;;11.02;;
18649;SDS011;9454;53.516;10.478;2022-08-16T06:10:46;24.52;;;12.40;;
18649;SDS011;9454;53.516;10.478;2022-08-16T06:14:10;20.00;;;11.18;;
18649;SDS011;9454;53.516;10.478;2022-08-16T06:17:17;20.70;;;12.10;;
18649;SDS011;9454;53.516;10.478;2022-08-16T06:20:23;29.52;;;12.35;;
18649;SDS011;9454;53.516;10.478;2022-08-16T06:23:51;21.70;;;12.80;;
18649;SDS011;9454;53.516;10.478;2022-08-16T06:26:57;17.40;;;12.23;;
18649;SDS011;9454;53.516;10.478;2022-08-16T06:30:06;27.55;;;13.43;;
18649;SDS011;9454;53.516;10.478;2022-08-16T06:33:10;19.02;;;12.20;;
18649;SDS011;9454;53.516;10.478;2022-08-16T06:36:22;22.00;;;12.35;;
18649;SDS011;9454;53.516;10.478;2022-08-16T06:39:42;24.98;;;12.48;;
18649;SDS011;9454;53.516;10.478;2022-08-16T06:42:58;20.83;;;12.25;;
18649;SDS011;9454;53.516;10.478;2022-08-16T06:46:20;18.90;;;12.98;;
18649;SDS011;9454;53.516;10.478;2022-08-16T06:49:37;33.15;;;13.48;;
18649;SDS011;9454;53.516;10.478;2022-08-16T06:52:53;23.17;;;13.30;;
18649;SDS011;9454;53.516;10.478;2022-08-16T06:55:59;22.10;;;13.50;;
18649;SDS011;9454;53.516;10.478;2022-08-16T06:59:21;27.55;;;14.45;;
18649;SDS011;9454;53.516;10.478;2022-08-16T07:02:31;20.30;;;13.63;;
18649;SDS011;9454;53.516;10.478;2022-08-16T07:05:36;21.83;;;11.77;;
18649;SDS011;9454;53.516;10.478;2022-08-16T07:08:53;21.38;;;13.80;;
18649;SDS011;9454;53.516;10.478;2022-08-16T07:11:57;19.73;;;12.88;;
18649;SDS011;9454;53.516;10.478;2022-08-16T07:15:10;22.88;;;13.50;;
18649;SDS011;9454;53.516;10.478;2022-08-16T07:18:19;25.88;;;11.10;;
18649;SDS011;9454;53.516;10.478;2022-08-16T07:21:25;23.98;;;12.43;;
18649;SDS011;9454;53.516;10.478;2022-08-16T07:24:46;21.65;;;11.13;;
18649;SDS011;9454;53.516;10.478;2022-08-16T07:27:50;17.15;;;11.80;;
18649;SDS011;9454;53.516;10.478;2022-08-16T07:30:59;22.20;;;11.85;;
18649;SDS011;9454;53.516;10.478;2022-08-16T07:34:07;21.08;;;11.30;;
18649;SDS011;9454;53.516;10.478;2022-08-16T07:37:11;22.30;;;11.23;;
18649;SDS011;9454;53.516;10.478;2022-08-16T07:40:35;16.83;;;10.43;;
18649;SDS011;9454;53.516;10.478;2022-08-16T07:43:59;21.50;;;10.05;;
18649;SDS011;9454;53.516;10.478;2022-08-16T07:47:05;16.35;;;10.48;;
18649;SDS011;9454;53.516;10.478;2022-08-16T07:50:12;14.35;;;9.75;;
18649;SDS011;9454;53.516;10.478;2022-08-16T07:53:37;14.80;;;10.18;;
18649;SDS011;9454;53.516;10.478;2022-08-16T07:56:46;17.05;;;10.57;;
18649;SDS011;9454;53.516;10.478;2022-08-16T07:59:50;23.45;;;10.57;;
18649;SDS011;9454;53.516;10.478;2022-08-16T08:02:55;13.07;;;9.18;;
18649;SDS011;9454;53.516;10.478;2022-08-16T08:05:58;18.25;;;10.05;;
18649;SDS011;9454;53.516;10.478;2022-08-16T08:09:02;16.52;;;10.23;;
18649;SDS011;9454;53.516;10.478;2022-08-16T08:12:06;19.88;;;9.70;;
18649;SDS011;9454;53.516;10.478;2022-08-16T08:15:29;17.48;;;8.10;;
18649;SDS011;9454;53.516;10.478;2022-08-16T08:18:37;15.90;;;8.98;;
18649;SDS011;9454;53.516;10.478;2022-08-16T08:21:41;15.98;;;8.10;;
18649;SDS011;9454;53.516;10.478;2022-08-16T08:25:14;13.63;;;6.28;;
18649;SDS011;9454;53.516;10.478;2022-08-16T08:28:19;11.80;;;5.82;;
18649;SDS011;9454;53.516;10.478;2022-08-16T08:31:24;11.48;;;5.70;;
18649;SDS011;9454;53.516;10.478;2022-08-16T08:34:29;10.00;;;6.47;;
18649;SDS011;9454;53.516;10.478;2022-08-16T08:37:33;11.25;;;6.22;;
18649;SDS011;9454;53.516;10.478;2022-08-16T08:40:58;7.57;;;4.32;;
18649;SDS011;9454;53.516;10.478;2022-08-16T08:44:01;10.65;;;5.40;;
18649;SDS011;9454;53.516;10.478;2022-08-16T08:47:24;12.52;;;6.10;;
18649;SDS011;9454;53.516;10.478;2022-08-16T08:50:29;10.82;;;4.78;;
18649;SDS011;9454;53.516;10.478;2022-08-16T08:53:34;7.05;;;4.88;;
18649;SDS011;9454;53.516;10.478;2022-08-16T08:56:39;15.00;;;4.63;;
18649;SDS011;9454;53.516;10.478;2022-08-16T09:00:13;7.72;;;4.55;;
18649;SDS011;9454;53.516;10.478;2022-08-16T09:03:22;12.35;;;4.53;;
18649;SDS011;9454;53.516;10.478;2022-08-16T09:06:29;7.00;;;4.13;;
18649;SDS011;9454;53.516;10.478;2022-08-16T09:09:33;8.43;;;4.55;;
18649;SDS011;9454;53.516;10.478;2022-08-16T09:12:45;10.80;;;4.30;;
18649;SDS011;9454;53.516;10.478;2022-08-16T09:15:55;8.65;;;3.78;;
18649;SDS011;9454;53.516;10.478;2022-08-16T09:18:58;9.30;;;4.32;;
18649;SDS011;9454;53.516;10.478;2022-08-16T09:22:07;11.65;;;4.47;;
18649;SDS011;9454;53.516;10.478;2022-08-16T09:25:23;5.70;;;3.50;;
18649;SDS011;9454;53.516;10.478;2022-08-16T09:28:38;10.65;;;4.63;;
18649;SDS011;9454;53.516;10.478;2022-08-16T09:32:02;4.90;;;3.85;;
18649;SDS011;9454;53.516;10.478;2022-08-16T09:35:09;7.88;;;3.78;;
18649;SDS011;9454;53.516;10.478;2022-08-16T09:38:13;10.00;;;3.58;;
18649;SDS011;9454;53.516;10.478;2022-08-16T09:41:33;7.07;;;3.20;;
18649;SDS011;9454;53.516;10.478;2022-08-16T09:44:36;6.97;;;3.25;;
18649;SDS011;9454;53.516;10.478;2022-08-16T09:47:59;4.30;;;3.08;;
18649;SDS011;9454;53.516;10.478;2022-08-16T09:51:02;7.18;;;3.80;;
18649;SDS011;9454;53.516;10.478;2022-08-16T09:54:07;6.78;;;3.55;;
18649;SDS011;9454;53.516;10.478;2022-08-16T09:57:21;10.65;;;4.13;;
18649;SDS011;9454;53.516;10.478;2022-08-16T10:00:24;9.00;;;3.33;;
18649;SDS011;9454;53.516;10.478;2022-08-16T10:03:45;4.75;;;3.45;;
18649;SDS011;9454;53.516;10.478;2022-08-16T10:07:03;8.20;;;3.22;;
18649;SDS011;9454;53.516;10.478;2022-08-16T10:10:18;4.88;;;3.83;;
18649;SDS011;9454;53.516;10.478;2022-08-16T10:13:32;7.22;;;3.58;;
18649;SDS011;9454;53.516;10.478;2022-08-16T10:16:35;6.13;;;3.55;;
18649;SDS011;9454;53.516;10.478;2022-08-16T10:19:40;8.05;;;3.28;;
18649;SDS011;9454;53.516;10.478;2022-08-16T10:22:43;9.93;;;3.90;;
18649;SDS011;9454;53.516;10.478;2022-08-16T10:25:47;8.43;;;3.80;;
18649;SDS011;9454;53.516;10.478;2022-08-16T10:29:12;9.52;;;3.97;;
18649;SDS011;9454;53.516;10.478;2022-08-16T10:32:21;10.13;;;3.35;;
18649;SDS011;9454;53.516;10.478;2022-08-16T10:35:31;5.40;;;3.72;;
18649;SDS011;9454;53.516;10.478;2022-08-16T10:38:34;4.70;;;3.40;;
18649;SDS011;9454;53.516;10.478;2022-08-16T10:41:39;6.53;;;3.38;;
18649;SDS011;9454;53.516;10.478;2022-08-16T10:44:45;5.75;;;3.33;;
18649;SDS011;9454;53.516;10.478;2022-08-16T10:47:55;6.20;;;2.85;;
18649;SDS011;9454;53.516;10.478;2022-08-16T10:51:03;11.35;;;3.03;;
18649;SDS011;9454;53.516;10.478;2022-08-16T10:54:06;6.70;;;3.60;;
18649;SDS011;9454;53.516;10.478;2022-08-16T10:57:31;5.68;;;3.30;;
18649;SDS011;9454;53.516;10.478;2022-08-16T11:00:36;7.63;;;3.05;;
18649;SDS011;9454;53.516;10.478;2022-08-16T11:03:40;5.47;;;3.25;;
18649;SDS011;9454;53.516;10.478;2022-08-16T11:06:46;7.63;;;3.53;;
18649;SDS011;9454;53.516;10.478;2022-08-16T11:10:09;14.02;;;3.50;;
18649;SDS011;9454;53.516;10.478;2022-08-16T11:13:34;5.32;;;2.75;;
18649;SDS011;9454;53.516;10.478;2022-08-16T11:16:57;10.48;;;3.17;;
18649;SDS011;9454;53.516;10.478;2022-08-16T11:20:09;4.88;;;3.53;;
18649;SDS011;9454;53.516;10.478;2022-08-16T11:23:34;7.90;;;3.40;;
18649;SDS011;9454;53.516;10.478;2022-08-16T11:26:37;6.30;;;3.53;;
18649;SDS011;9454;53.516;10.478;2022-08-16T11:29:41;6.47;;;3.22;;
18649;SDS011;9454;53.516;10.478;2022-08-16T11:32:45;5.68;;;2.70;;
18649;SDS011;9454;53.516;10.478;2022-08-16T11:35:49;7.15;;;2.97;;
18649;SDS011;9454;53.516;10.478;2022-08-16T11:39:13;4.50;;;3.20;;
18649;SDS011;9454;53.516;10.478;2022-08-16T11:42:16;10.13;;;3.03;;
18649;SDS011;9454;53.516;10.478;2022-08-16T11:45:32;5.82;;;3.20;;
18649;SDS011;9454;53.516;10.478;2022-08-16T11:48:37;5.60;;;2.67;;
18649;SDS011;9454;53.516;10.478;2022-08-16T11:51:40;6.53;;;2.67;;
18649;SDS011;9454;53.516;10.478;2022-08-16T11:54:44;8.23;;;2.95;;
18649;SDS011;9454;53.516;10.478;2022-08-16T11:57:57;4.90;;;2.72;;
18649;SDS011;9454;53.516;10.478;2022-08-16T12:01:02;6.47;;;2.90;;
18649;SDS011;9454;53.516;10.478;2022-08-16T12:04:11;8.85;;;2.80;;
18649;SDS011;9454;53.516;10.478;2022-08-16T12:07:14;4.38;;;2.75;;
18649;SDS011;9454;53.516;10.478;2022-08-16T12:10:17;4.20;;;2.70;;
18649;SDS011;9454;53.516;10.478;2022-08-16T12:13:20;5.20;;;2.55;;
18649;SDS011;9454;53.516;10.478;2022-08-16T12:16:25;4.15;;;3.00;;
18649;SDS011;9454;53.516;10.478;2022-08-16T12:19:34;5.93;;;3.45;;
18649;SDS011;9454;53.516;10.478;2022-08-16T12:22:38;12.20;;;3.40;;
18649;SDS011;9454;53.516;10.478;2022-08-16T12:25:44;3.50;;;3.20;;
18649;SDS011;9454;53.516;10.478;2022-08-16T12:28:46;3.95;;;3.08;;
18649;SDS011;9454;53.516;10.478;2022-08-16T12:31:58;6.90;;;3.80;;
18649;SDS011;9454;53.516;10.478;2022-08-16T12:35:21;10.18;;;3.08;;
18649;SDS011;9454;53.516;10.478;2022-08-16T12:38:26;7.28;;;3.40;;
18649;SDS011;9454;53.516;10.478;2022-08-16T12:41:48;6.43;;;3.25;;
18649;SDS011;9454;53.516;10.478;2022-08-16T12:44:52;5.20;;;3.25;;
18649;SDS011;9454;53.516;10.478;2022-08-16T12:47:57;5.50;;;3.65;;
18649;SDS011;9454;53.516;10.478;2022-08-16T12:51:36;9.68;;;3.55;;
18649;SDS011;9454;53.516;10.478;2022-08-16T12:54:59;4.28;;;3.22;;
18649;SDS011;9454;53.516;10.478;2022-08-16T12:58:03;6.55;;;3.45;;
18649;SDS011;9454;53.516;10.478;2022-08-16T13:01:27;5.75;;;3.25;;
18649;SDS011;9454;53.516;10.478;2022-08-16T13:04:33;3.75;;;3.38;;
18649;SDS011;9454;53.516;10.478;2022-08-16T13:07:39;11.02;;;3.40;;
18649;SDS011;9454;53.516;10.478;2022-08-16T13:10:51;7.13;;;3.67;;
18649;SDS011;9454;53.516;10.478;2022-08-16T13:13:55;7.95;;;3.50;;
18649;SDS011;9454;53.516;10.478;2022-08-16T13:16:59;4.75;;;3.20;;
18649;SDS011;9454;53.516;10.478;2022-08-16T13:20:05;4.22;;;3.30;;
18649;SDS011;9454;53.516;10.478;2022-08-16T13:23:10;7.10;;;3.92;;
18649;SDS011;9454;53.516;10.478;2022-08-16T13:26:17;6.53;;;3.17;;
18649;SDS011;9454;53.516;10.478;2022-08-16T13:29:20;11.68;;;3.22;;
18649;SDS011;9454;53.516;10.478;2022-08-16T13:32:23;5.25;;;3.20;;
18649;SDS011;9454;53.516;10.478;2022-08-16T13:35:43;4.93;;;3.40;;
18649;SDS011;9454;53.516;10.478;2022-08-16T13:38:48;4.03;;;3.08;;
18649;SDS011;9454;53.516;10.478;2022-08-16T13:41:53;4.60;;;3.30;;
18649;SDS011;9454;53.516;10.478;2022-08-16T13:44:56;4.65;;;2.92;;
18649;SDS011;9454;53.516;10.478;2022-08-16T13:47:59;6.70;;;3.45;;
18649;SDS011;9454;53.516;10.478;2022-08-16T13:51:06;5.70;;;3.20;;
18649;SDS011;9454;53.516;10.478;2022-08-16T13:54:17;10.68;;;3.35;;
18649;SDS011;9454;53.516;10.478;2022-08-16T13:57:20;4.65;;;3.05;;
18649;SDS011;9454;53.516;10.478;2022-08-16T14:00:43;4.78;;;3.47;;
18649;SDS011;9454;53.516;10.478;2022-08-16T14:03:53;8.73;;;3.22;;
18649;SDS011;9454;53.516;10.478;2022-08-16T14:06:58;4.18;;;2.90;;
18649;SDS011;9454;53.516;10.478;2022-08-16T14:10:01;4.45;;;2.85;;
18649;SDS011;9454;53.516;10.478;2022-08-16T14:13:04;8.85;;;3.35;;
18649;SDS011;9454;53.516;10.478;2022-08-16T14:16:20;4.63;;;3.35;;
18649;SDS011;9454;53.516;10.478;2022-08-16T14:19:25;4.93;;;3.30;;
18649;SDS011;9454;53.516;10.478;2022-08-16T14:22:34;5.43;;;3.17;;
18649;SDS011;9454;53.516;10.478;2022-08-16T14:25:46;7.78;;;3.20;;
18649;SDS011;9454;53.516;10.478;2022-08-16T14:28:57;5.55;;;2.70;;
18649;SDS011;9454;53.516;10.478;2022-08-16T14:32:04;7.63;;;3.33;;
18649;SDS011;9454;53.516;10.478;2022-08-16T14:35:10;5.93;;;3.67;;
18649;SDS011;9454;53.516;10.478;2022-08-16T14:38:15;6.18;;;3.05;;
18649;SDS011;9454;53.516;10.478;2022-08-16T14:41:24;7.88;;;3.63;;
18649;SDS011;9454;53.516;10.478;2022-08-16T14:44:27;3.90;;;3.05;;
18649;SDS011;9454;53.516;10.478;2022-08-16T14:47:30;11.52;;;3.50;;
18649;SDS011;9454;53.516;10.478;2022-08-16T14:50:35;8.50;;;3.38;;
18649;SDS011;9454;53.516;10.478;2022-08-16T14:53:40;3.85;;;3.22;;
18649;SDS011;9454;53.516;10.478;2022-08-16T14:56:46;7.00;;;3.17;;
18649;SDS011;9454;53.516;10.478;2022-08-16T14:59:55;6.40;;;3.28;;
18649;SDS011;9454;53.516;10.478;2022-08-16T15:03:07;5.05;;;3.30;;
18649;SDS011;9454;53.516;10.478;2022-08-16T15:06:11;6.53;;;3.50;;
18649;SDS011;9454;53.516;10.478;2022-08-16T15:09:16;4.93;;;3.78;;
18649;SDS011;9454;53.516;10.478;2022-08-16T15:12:22;3.83;;;3.33;;
18649;SDS011;9454;53.516;10.478;2022-08-16T15:15:32;3.97;;;3.33;;
18649;SDS011;9454;53.516;10.478;2022-08-16T15:18:35;6.50;;;3.00;;
18649;SDS011;9454;53.516;10.478;2022-08-16T15:21:40;8.50;;;2.92;;
18649;SDS011;9454;53.516;10.478;2022-08-16T15:24:44;5.97;;;3.30;;
18649;SDS011;9454;53.516;10.478;2022-08-16T15:27:48;4.85;;;2.80;;
18649;SDS011;9454;53.516;10.478;2022-08-16T15:30:56;6.25;;;3.35;;
18649;SDS011;9454;53.516;10.478;2022-08-16T15:34:04;9.13;;;3.00;;
18649;SDS011;9454;53.516;10.478;2022-08-16T15:37:13;4.45;;;2.95;;
18649;SDS011;9454;53.516;10.478;2022-08-16T15:40:18;6.85;;;2.75;;
18649;SDS011;9454;53.516;10.478;2022-08-16T15:43:35;6.93;;;3.10;;
18649;SDS011;9454;53.516;10.478;2022-08-16T15:46:40;3.42;;;3.00;;
18649;SDS011;9454;53.516;10.478;2022-08-16T15:49:58;7.88;;;3.17;;
18649;SDS011;9454;53.516;10.478;2022-08-16T15:53:03;5.60;;;3.15;;
18649;SDS011;9454;53.516;10.478;2022-08-16T15:56:14;5.57;;;3.25;;
18649;SDS011;9454;53.516;10.478;2022-08-16T15:59:18;9.32;;;3.83;;
18649;SDS011;9454;53.516;10.478;2022-08-16T16:02:25;5.95;;;3.08;;
18649;SDS011;9454;53.516;10.478;2022-08-16T16:05:32;3.80;;;2.83;;
18649;SDS011;9454;53.516;10.478;2022-08-16T16:08:35;5.20;;;3.47;;
18649;SDS011;9454;53.516;10.478;2022-08-16T16:11:44;9.13;;;3.83;;
18649;SDS011;9454;53.516;10.478;2022-08-16T16:14:47;4.53;;;2.85;;
18649;SDS011;9454;53.516;10.478;2022-08-16T16:17:51;6.45;;;3.38;;
18649;SDS011;9454;53.516;10.478;2022-08-16T16:20:55;4.75;;;3.33;;
18649;SDS011;9454;53.516;10.478;2022-08-16T16:24:00;6.40;;;3.13;;
18649;SDS011;9454;53.516;10.478;2022-08-16T16:27:23;5.25;;;3.08;;
18649;SDS011;9454;53.516;10.478;2022-08-16T16:30:27;6.00;;;3.20;;
18649;SDS011;9454;53.516;10.478;2022-08-16T16:33:47;5.10;;;3.22;;
18649;SDS011;9454;53.516;10.478;2022-08-16T16:36:51;5.85;;;4.07;;
18649;SDS011;9454;53.516;10.478;2022-08-16T16:39:54;3.58;;;2.83;;
18649;SDS011;9454;53.516;10.478;2022-08-16T16:43:00;4.68;;;2.95;;
18649;SDS011;9454;53.516;10.478;2022-08-16T16:46:04;4.47;;;3.63;;
18649;SDS011;9454;53.516;10.478;2022-08-16T16:49:27;9.10;;;4.55;;
18649;SDS011;9454;53.516;10.478;2022-08-16T16:52:30;3.83;;;3.00;;
18649;SDS011;9454;53.516;10.478;2022-08-16T16:55:45;6.25;;;3.67;;
18649;SDS011;9454;53.516;10.478;2022-08-16T16:58:54;5.78;;;3.25;;
18649;SDS011;9454;53.516;10.478;2022-08-16T17:02:02;4.53;;;3.33;;
18649;SDS011;9454;53.516;10.478;2022-08-16T17:05:24;12.73;;;3.95;;
18649;SDS011;9454;53.516;10.478;2022-08-16T17:08:33;10.18;;;3.88;;
18649;SDS011;9454;53.516;10.478;2022-08-16T17:11:37;13.80;;;4.43;;
18649;SDS011;9454;53.516;10.478;2022-08-16T17:14:42;5.18;;;3.33;;
18649;SDS011;9454;53.516;10.478;2022-08-16T17:17:46;9.10;;;4.45;;
18649;SDS011;9454;53.516;10.478;2022-08-16T17:21:02;8.10;;;3.80;;
18649;SDS011;9454;53.516;10.478;2022-08-16T17:24:05;7.22;;;3.63;;
18649;SDS011;9454;53.516;10.478;2022-08-16T17:27:28;6.05;;;3.30;;
18649;SDS011;9454;53.516;10.478;2022-08-16T17:30:35;4.88;;;3.15;;
18649;SDS011;9454;53.516;10.478;2022-08-16T17:33:46;4.60;;;3.38;;
18649;SDS011;9454;53.516;10.478;2022-08-16T17:36:55;5.30;;;3.58;;
18649;SDS011;9454;53.516;10.478;2022-08-16T17:39:59;3.55;;;3.22;;
18649;SDS011;9454;53.516;10.478;2022-08-16T17:43:04;4.05;;;3.38;;
18649;SDS011;9454;53.516;10.478;2022-08-16T17:46:10;6.75;;;3.90;;
18649;SDS011;9454;53.516;10.478;2022-08-16T17:49:33;8.27;;;3.90;;
18649;SDS011;9454;53.516;10.478;2022-08-16T17:52:35;8.02;;;3.47;;
18649;SDS011;9454;53.516;10.478;2022-08-16T17:55:50;5.95;;;3.83;;
18649;SDS011;9454;53.516;10.478;2022-08-16T17:58:55;7.68;;;3.25;;
18649;SDS011;9454;53.516;10.478;2022-08-16T18:01:59;4.45;;;3.50;;
18649;SDS011;9454;53.516;10.478;2022-08-16T18:05:22;11.95;;;4.10;;
18649;SDS011;9454;53.516;10.478;2022-08-16T18:08:25;9.60;;;4.05;;
18649;SDS011;9454;53.516;10.478;2022-08-16T18:11:31;8.73;;;3.58;;
18649;SDS011;9454;53.516;10.478;2022-08-16T18:14:35;10.70;;;4.38;;
18649;SDS011;9454;53.516;10.478;2022-08-16T18:17:55;7.20;;;3.42;;
18649;SDS011;9454;53.516;10.478;2022-08-16T18:20:59;5.00;;;3.85;;
18649;SDS011;9454;53.516;10.478;2022-08-16T18:24:19;8.18;;;3.72;;
18649;SDS011;9454;53.516;10.478;2022-08-16T18:27:22;4.63;;;3.58;;
18649;SDS011;9454;53.516;10.478;2022-08-16T18:30:28;4.40;;;3.60;;
18649;SDS011;9454;53.516;10.478;2022-08-16T18:33:33;4.53;;;3.40;;
18649;SDS011;9454;53.516;10.478;2022-08-16T18:36:44;7.15;;;3.80;;
18649;SDS011;9454;53.516;10.478;2022-08-16T18:39:47;7.80;;;3.78;;
18649;SDS011;9454;53.516;10.478;2022-08-16T18:42:54;6.57;;;4.35;;
18649;SDS011;9454;53.516;10.478;2022-08-16T18:45:57;5.28;;;3.42;;
18649;SDS011;9454;53.516;10.478;2022-08-16T18:49:02;6.53;;;3.78;;
18649;SDS011;9454;53.516;10.478;2022-08-16T18:52:05;5.30;;;3.47;;
18649;SDS011;9454;53.516;10.478;2022-08-16T18:55:08;5.45;;;3.63;;